sensor_id;sensor_type;location;lat;lon;timestamp;P1;durP1;ratioP1;P2;durP2;ratioP2
75651;SDS011;64248;43.602;39.724;2022-10-16T09:57:53;5.07;;;3.33;;
75651;SDS011;64248;43.602;39.724;2022-10-16T10:00:21;4.18;;;3.00;;
75651;SDS011;64248;43.602;39.724;2022-10-16T10:02:48;4.38;;;2.72;;
75651;SDS011;64248;43.602;39.724;2022-10-16T10:07:57;3.08;;;2.00;;
75651;SDS011;64248;43.602;39.724;2022-10-16T10:10:28;3.75;;;2.30;;
75651;SDS011;64248;43.602;39.724;2022-10-16T10:12:56;7.60;;;2.40;;
75651;SDS011;64248;43.602;39.724;2022-10-16T10:15:22;6.63;;;2.42;;
75651;SDS011;64248;43.602;39.724;2022-10-16T10:17:58;7.05;;;3.28;;
75651;SDS011;64248;43.602;39.724;2022-10-16T10:22:58;5.88;;;2.97;;
75651;SDS011;64248;43.602;39.724;2022-10-16T10:28:18;4.35;;;2.55;;
75651;SDS011;64248;43.602;39.724;2022-10-16T10:31:06;4.47;;;2.42;;
75651;SDS011;64248;43.602;39.724;2022-10-16T10:36:28;7.47;;;3.55;;
75651;SDS011;64248;43.602;39.724;2022-10-16T10:39:04;5.45;;;3.50;;
75651;SDS011;64248;43.602;39.724;2022-10-16T10:56:17;4.28;;;2.55;;
75651;SDS011;64248;43.602;39.724;2022-10-16T11:01:55;7.28;;;2.88;;
75651;SDS011;64248;43.602;39.724;2022-10-16T11:07:47;5.50;;;2.50;;
75651;SDS011;64248;43.602;39.724;2022-10-16T11:10:23;4.20;;;2.33;;
75651;SDS011;64248;43.602;39.724;2022-10-16T11:15:59;4.38;;;2.72;;
75651;SDS011;64248;43.602;39.724;2022-10-16T11:18:36;6.18;;;4.10;;
75651;SDS011;64248;43.602;39.724;2022-10-16T11:21:14;4.70;;;2.53;;
75651;SDS011;64248;43.602;39.724;2022-10-16T11:23:44;4.85;;;3.22;;
75651;SDS011;64248;43.602;39.724;2022-10-16T11:26:14;4.13;;;2.38;;
75651;SDS011;64248;43.602;39.724;2022-10-16T11:28:50;5.32;;;3.10;;
75651;SDS011;64248;43.602;39.724;2022-10-16T11:33:59;4.30;;;2.30;;
75651;SDS011;64248;43.602;39.724;2022-10-16T11:39:23;3.30;;;1.85;;
75651;SDS011;64248;43.602;39.724;2022-10-16T11:47:37;3.97;;;2.30;;
75651;SDS011;64248;43.602;39.724;2022-10-16T11:52:51;3.72;;;2.28;;
75651;SDS011;64248;43.602;39.724;2022-10-16T11:55:42;3.88;;;2.25;;
75651;SDS011;64248;43.602;39.724;2022-10-16T12:03:43;5.25;;;3.30;;
75651;SDS011;64248;43.602;39.724;2022-10-16T12:06:31;6.20;;;2.50;;
75651;SDS011;64248;43.602;39.724;2022-10-16T12:09:09;3.95;;;2.35;;
75651;SDS011;64248;43.602;39.724;2022-10-16T12:11:41;5.88;;;2.65;;
75651;SDS011;64248;43.602;39.724;2022-10-16T12:16:37;6.20;;;4.28;;
75651;SDS011;64248;43.602;39.724;2022-10-16T12:19:16;5.25;;;3.30;;
75651;SDS011;64248;43.602;39.724;2022-10-16T12:21:43;7.07;;;2.20;;
75651;SDS011;64248;43.602;39.724;2022-10-16T12:27:03;4.20;;;2.08;;
75651;SDS011;64248;43.602;39.724;2022-10-16T12:29:38;4.53;;;2.45;;
75651;SDS011;64248;43.602;39.724;2022-10-16T12:32:28;5.57;;;2.58;;
75651;SDS011;64248;43.602;39.724;2022-10-16T12:34:52;4.18;;;3.38;;
75651;SDS011;64248;43.602;39.724;2022-10-16T12:37:22;4.35;;;2.35;;
75651;SDS011;64248;43.602;39.724;2022-10-16T12:39:51;4.65;;;2.75;;
75651;SDS011;64248;43.602;39.724;2022-10-16T12:44:55;8.00;;;2.67;;
75651;SDS011;64248;43.602;39.724;2022-10-16T12:49:56;6.28;;;3.28;;
75651;SDS011;64248;43.602;39.724;2022-10-16T12:52:35;6.35;;;2.90;;
75651;SDS011;64248;43.602;39.724;2022-10-16T12:55:04;7.32;;;3.10;;
75651;SDS011;64248;43.602;39.724;2022-10-16T13:08:43;5.38;;;4.03;;
75651;SDS011;64248;43.602;39.724;2022-10-16T13:16:50;5.22;;;3.25;;
75651;SDS011;64248;43.602;39.724;2022-10-16T13:22:40;4.90;;;2.97;;
75651;SDS011;64248;43.602;39.724;2022-10-16T13:28:01;5.15;;;3.10;;
75651;SDS011;64248;43.602;39.724;2022-10-16T13:30:30;4.97;;;2.45;;
75651;SDS011;64248;43.602;39.724;2022-10-16T13:33:13;5.68;;;2.75;;
75651;SDS011;64248;43.602;39.724;2022-10-16T13:35:46;7.28;;;3.65;;
75651;SDS011;64248;43.602;39.724;2022-10-16T13:38:18;4.85;;;2.63;;
75651;SDS011;64248;43.602;39.724;2022-10-16T13:41:02;6.55;;;3.17;;
75651;SDS011;64248;43.602;39.724;2022-10-16T13:43:38;6.03;;;2.70;;
75651;SDS011;64248;43.602;39.724;2022-10-16T13:46:19;4.68;;;3.13;;
75651;SDS011;64248;43.602;39.724;2022-10-16T13:48:59;5.47;;;3.15;;
75651;SDS011;64248;43.602;39.724;2022-10-16T13:51:26;6.57;;;3.83;;
75651;SDS011;64248;43.602;39.724;2022-10-16T13:53:54;6.70;;;3.40;;
75651;SDS011;64248;43.602;39.724;2022-10-16T13:56:22;5.63;;;3.33;;
75651;SDS011;64248;43.602;39.724;2022-10-16T13:59:02;5.60;;;3.63;;
75651;SDS011;64248;43.602;39.724;2022-10-16T14:01:48;5.40;;;3.20;;
75651;SDS011;64248;43.602;39.724;2022-10-16T14:04:15;7.95;;;3.53;;
75651;SDS011;64248;43.602;39.724;2022-10-16T14:06:42;8.43;;;3.67;;
75651;SDS011;64248;43.602;39.724;2022-10-16T14:11:51;7.03;;;3.72;;
75651;SDS011;64248;43.602;39.724;2022-10-16T14:14:19;6.43;;;4.03;;
75651;SDS011;64248;43.602;39.724;2022-10-16T14:16:46;7.20;;;3.80;;
75651;SDS011;64248;43.602;39.724;2022-10-16T14:21:50;6.90;;;4.68;;
75651;SDS011;64248;43.602;39.724;2022-10-16T14:26:56;7.68;;;4.07;;
75651;SDS011;64248;43.602;39.724;2022-10-16T14:29:23;6.22;;;3.85;;
75651;SDS011;64248;43.602;39.724;2022-10-16T14:31:55;8.10;;;4.70;;
75651;SDS011;64248;43.602;39.724;2022-10-16T14:36:49;7.85;;;4.57;;
75651;SDS011;64248;43.602;39.724;2022-10-16T14:39:22;7.75;;;4.05;;
75651;SDS011;64248;43.602;39.724;2022-10-16T14:41:50;8.98;;;4.85;;
75651;SDS011;64248;43.602;39.724;2022-10-16T14:44:17;6.85;;;4.78;;
75651;SDS011;64248;43.602;39.724;2022-10-16T14:46:44;8.60;;;4.10;;
75651;SDS011;64248;43.602;39.724;2022-10-16T14:51:37;8.60;;;5.53;;
75651;SDS011;64248;43.602;39.724;2022-10-16T14:54:09;9.43;;;5.88;;
75651;SDS011;64248;43.602;39.724;2022-10-16T14:59:17;10.52;;;5.47;;
75651;SDS011;64248;43.602;39.724;2022-10-16T15:01:47;9.13;;;5.05;;
75651;SDS011;64248;43.602;39.724;2022-10-16T15:04:13;9.05;;;5.63;;
75651;SDS011;64248;43.602;39.724;2022-10-16T15:06:40;11.32;;;6.05;;
75651;SDS011;64248;43.602;39.724;2022-10-16T15:09:06;10.52;;;5.68;;
75651;SDS011;64248;43.602;39.724;2022-10-16T15:11:32;14.15;;;7.95;;
75651;SDS011;64248;43.602;39.724;2022-10-16T15:13:59;13.15;;;7.35;;
75651;SDS011;64248;43.602;39.724;2022-10-16T15:16:25;21.60;;;11.05;;
75651;SDS011;64248;43.602;39.724;2022-10-16T15:18:51;17.27;;;7.63;;
75651;SDS011;64248;43.602;39.724;2022-10-16T15:23:52;19.33;;;9.77;;
75651;SDS011;64248;43.602;39.724;2022-10-16T15:26:18;19.27;;;11.95;;
75651;SDS011;64248;43.602;39.724;2022-10-16T15:28:44;18.08;;;9.82;;
75651;SDS011;64248;43.602;39.724;2022-10-16T15:31:10;19.00;;;9.88;;
75651;SDS011;64248;43.602;39.724;2022-10-16T15:33:36;15.88;;;9.40;;
75651;SDS011;64248;43.602;39.724;2022-10-16T15:36:02;17.30;;;9.32;;
75651;SDS011;64248;43.602;39.724;2022-10-16T15:38:28;17.85;;;9.20;;
75651;SDS011;64248;43.602;39.724;2022-10-16T15:40:55;19.02;;;10.35;;
75651;SDS011;64248;43.602;39.724;2022-10-16T15:43:21;17.60;;;9.45;;
75651;SDS011;64248;43.602;39.724;2022-10-16T15:45:58;20.65;;;10.02;;
75651;SDS011;64248;43.602;39.724;2022-10-16T15:48:34;19.73;;;9.98;;
75651;SDS011;64248;43.602;39.724;2022-10-16T15:51:00;23.00;;;9.80;;
75651;SDS011;64248;43.602;39.724;2022-10-16T15:53:29;20.15;;;10.77;;
75651;SDS011;64248;43.602;39.724;2022-10-16T15:55:55;17.23;;;10.85;;
75651;SDS011;64248;43.602;39.724;2022-10-16T15:58:21;19.15;;;10.20;;
75651;SDS011;64248;43.602;39.724;2022-10-16T16:00:54;20.10;;;10.75;;
75651;SDS011;64248;43.602;39.724;2022-10-16T16:03:26;20.05;;;9.88;;
75651;SDS011;64248;43.602;39.724;2022-10-16T16:05:52;17.63;;;9.70;;
75651;SDS011;64248;43.602;39.724;2022-10-16T16:08:19;17.52;;;9.60;;
75651;SDS011;64248;43.602;39.724;2022-10-16T16:10:45;15.82;;;9.52;;
75651;SDS011;64248;43.602;39.724;2022-10-16T16:13:11;20.15;;;9.63;;
75651;SDS011;64248;43.602;39.724;2022-10-16T16:15:40;18.88;;;11.25;;
75651;SDS011;64248;43.602;39.724;2022-10-16T16:18:06;15.52;;;9.70;;
75651;SDS011;64248;43.602;39.724;2022-10-16T16:20:34;17.13;;;9.07;;
75651;SDS011;64248;43.602;39.724;2022-10-16T16:23:00;18.73;;;10.23;;
75651;SDS011;64248;43.602;39.724;2022-10-16T16:25:26;16.45;;;10.38;;
75651;SDS011;64248;43.602;39.724;2022-10-16T16:27:52;17.02;;;9.10;;
75651;SDS011;64248;43.602;39.724;2022-10-16T16:30:18;16.85;;;9.20;;
75651;SDS011;64248;43.602;39.724;2022-10-16T16:32:45;19.65;;;10.18;;
75651;SDS011;64248;43.602;39.724;2022-10-16T16:35:12;17.50;;;9.02;;
75651;SDS011;64248;43.602;39.724;2022-10-16T16:37:37;18.20;;;9.40;;
75651;SDS011;64248;43.602;39.724;2022-10-16T16:40:03;18.42;;;9.18;;
75651;SDS011;64248;43.602;39.724;2022-10-16T16:42:30;18.20;;;8.43;;
75651;SDS011;64248;43.602;39.724;2022-10-16T16:44:56;14.38;;;8.43;;
75651;SDS011;64248;43.602;39.724;2022-10-16T16:47:22;14.05;;;7.32;;
75651;SDS011;64248;43.602;39.724;2022-10-16T16:49:48;14.40;;;8.30;;
75651;SDS011;64248;43.602;39.724;2022-10-16T16:52:14;13.10;;;7.63;;
75651;SDS011;64248;43.602;39.724;2022-10-16T16:54:40;15.00;;;7.88;;
75651;SDS011;64248;43.602;39.724;2022-10-16T16:57:06;12.30;;;7.38;;
75651;SDS011;64248;43.602;39.724;2022-10-16T16:59:32;17.95;;;7.85;;
75651;SDS011;64248;43.602;39.724;2022-10-16T17:01:59;11.55;;;6.97;;
75651;SDS011;64248;43.602;39.724;2022-10-16T17:04:25;13.85;;;7.85;;
75651;SDS011;64248;43.602;39.724;2022-10-16T17:06:54;16.05;;;7.68;;
75651;SDS011;64248;43.602;39.724;2022-10-16T17:09:21;13.93;;;6.95;;
75651;SDS011;64248;43.602;39.724;2022-10-16T17:11:48;13.60;;;7.45;;
75651;SDS011;64248;43.602;39.724;2022-10-16T17:14:14;13.70;;;7.82;;
75651;SDS011;64248;43.602;39.724;2022-10-16T17:16:44;15.77;;;7.65;;
75651;SDS011;64248;43.602;39.724;2022-10-16T17:19:14;13.10;;;7.07;;
75651;SDS011;64248;43.602;39.724;2022-10-16T17:21:42;12.90;;;6.47;;
75651;SDS011;64248;43.602;39.724;2022-10-16T17:24:08;11.48;;;6.47;;
75651;SDS011;64248;43.602;39.724;2022-10-16T17:26:35;16.02;;;7.15;;
75651;SDS011;64248;43.602;39.724;2022-10-16T17:29:02;13.07;;;6.97;;
75651;SDS011;64248;43.602;39.724;2022-10-16T17:31:30;15.50;;;6.70;;
75651;SDS011;64248;43.602;39.724;2022-10-16T17:33:58;15.02;;;7.10;;
75651;SDS011;64248;43.602;39.724;2022-10-16T17:36:25;11.18;;;7.57;;
75651;SDS011;64248;43.602;39.724;2022-10-16T17:38:57;11.35;;;6.93;;
75651;SDS011;64248;43.602;39.724;2022-10-16T17:41:26;12.80;;;6.93;;
75651;SDS011;64248;43.602;39.724;2022-10-16T17:43:52;14.57;;;7.00;;
75651;SDS011;64248;43.602;39.724;2022-10-16T17:46:19;12.65;;;7.10;;
75651;SDS011;64248;43.602;39.724;2022-10-16T17:48:47;12.80;;;6.85;;
75651;SDS011;64248;43.602;39.724;2022-10-16T17:51:16;10.43;;;5.65;;
75651;SDS011;64248;43.602;39.724;2022-10-16T17:53:48;13.43;;;6.45;;
75651;SDS011;64248;43.602;39.724;2022-10-16T17:56:15;10.32;;;6.28;;
75651;SDS011;64248;43.602;39.724;2022-10-16T17:58:41;11.88;;;6.95;;
75651;SDS011;64248;43.602;39.724;2022-10-16T18:01:11;10.93;;;6.25;;
75651;SDS011;64248;43.602;39.724;2022-10-16T18:03:47;10.38;;;5.93;;
75651;SDS011;64248;43.602;39.724;2022-10-16T18:06:18;14.38;;;8.50;;
75651;SDS011;64248;43.602;39.724;2022-10-16T18:08:44;26.20;;;19.40;;
75651;SDS011;64248;43.602;39.724;2022-10-16T18:11:10;251.10;;;223.48;;
75651;SDS011;64248;43.602;39.724;2022-10-16T18:13:36;843.55;;;499.25;;
75651;SDS011;64248;43.602;39.724;2022-10-16T18:16:03;844.50;;;551.72;;
75651;SDS011;64248;43.602;39.724;2022-10-16T18:18:33;100.13;;;56.75;;
75651;SDS011;64248;43.602;39.724;2022-10-16T18:21:01;39.42;;;24.63;;
75651;SDS011;64248;43.602;39.724;2022-10-16T18:23:29;65.72;;;33.80;;
75651;SDS011;64248;43.602;39.724;2022-10-16T18:25:55;38.67;;;22.40;;
75651;SDS011;64248;43.602;39.724;2022-10-16T18:28:21;154.60;;;82.22;;
75651;SDS011;64248;43.602;39.724;2022-10-16T18:33:23;88.50;;;46.88;;
75651;SDS011;64248;43.602;39.724;2022-10-16T18:35:50;14.52;;;9.65;;
75651;SDS011;64248;43.602;39.724;2022-10-16T18:38:16;81.22;;;40.78;;
75651;SDS011;64248;43.602;39.724;2022-10-16T18:40:45;15.50;;;7.78;;
75651;SDS011;64248;43.602;39.724;2022-10-16T18:43:11;38.83;;;19.23;;
75651;SDS011;64248;43.602;39.724;2022-10-16T18:45:37;10.13;;;6.45;;
75651;SDS011;64248;43.602;39.724;2022-10-16T18:48:04;13.38;;;5.93;;
75651;SDS011;64248;43.602;39.724;2022-10-16T18:50:30;48.47;;;20.77;;
75651;SDS011;64248;43.602;39.724;2022-10-16T18:52:56;55.83;;;28.25;;
75651;SDS011;64248;43.602;39.724;2022-10-16T18:55:22;17.38;;;9.50;;
75651;SDS011;64248;43.602;39.724;2022-10-16T18:57:51;9.40;;;5.47;;
75651;SDS011;64248;43.602;39.724;2022-10-16T19:00:17;11.38;;;7.53;;
75651;SDS011;64248;43.602;39.724;2022-10-16T19:02:43;12.13;;;7.18;;
75651;SDS011;64248;43.602;39.724;2022-10-16T19:05:09;13.85;;;7.18;;
75651;SDS011;64248;43.602;39.724;2022-10-16T19:07:35;10.15;;;5.53;;
75651;SDS011;64248;43.602;39.724;2022-10-16T19:10:02;11.70;;;6.22;;
75651;SDS011;64248;43.602;39.724;2022-10-16T19:12:28;9.57;;;5.50;;
75651;SDS011;64248;43.602;39.724;2022-10-16T19:14:55;12.70;;;6.13;;
75651;SDS011;64248;43.602;39.724;2022-10-16T19:17:21;11.98;;;5.93;;
75651;SDS011;64248;43.602;39.724;2022-10-16T19:19:47;9.77;;;5.30;;
75651;SDS011;64248;43.602;39.724;2022-10-16T19:22:13;9.00;;;4.97;;
75651;SDS011;64248;43.602;39.724;2022-10-16T19:24:52;10.20;;;5.47;;
75651;SDS011;64248;43.602;39.724;2022-10-16T19:27:18;8.88;;;6.70;;
75651;SDS011;64248;43.602;39.724;2022-10-16T19:29:44;10.35;;;5.85;;
75651;SDS011;64248;43.602;39.724;2022-10-16T19:32:10;8.73;;;5.18;;
75651;SDS011;64248;43.602;39.724;2022-10-16T19:34:36;8.32;;;5.80;;
75651;SDS011;64248;43.602;39.724;2022-10-16T19:37:02;10.43;;;4.97;;
75651;SDS011;64248;43.602;39.724;2022-10-16T19:39:28;8.85;;;6.13;;
75651;SDS011;64248;43.602;39.724;2022-10-16T19:41:56;9.13;;;5.53;;
75651;SDS011;64248;43.602;39.724;2022-10-16T19:44:21;10.75;;;5.18;;
75651;SDS011;64248;43.602;39.724;2022-10-16T19:46:47;8.65;;;4.43;;
75651;SDS011;64248;43.602;39.724;2022-10-16T19:49:14;8.07;;;5.13;;
75651;SDS011;64248;43.602;39.724;2022-10-16T19:51:45;12.05;;;4.78;;
75651;SDS011;64248;43.602;39.724;2022-10-16T19:54:12;9.40;;;4.72;;
75651;SDS011;64248;43.602;39.724;2022-10-16T19:56:38;10.98;;;4.90;;
75651;SDS011;64248;43.602;39.724;2022-10-16T19:59:06;9.50;;;4.43;;
75651;SDS011;64248;43.602;39.724;2022-10-16T20:01:33;11.00;;;5.50;;
75651;SDS011;64248;43.602;39.724;2022-10-16T20:03:59;8.10;;;4.32;;
75651;SDS011;64248;43.602;39.724;2022-10-16T20:06:25;8.90;;;4.55;;
75651;SDS011;64248;43.602;39.724;2022-10-16T20:08:52;8.55;;;5.07;;
75651;SDS011;64248;43.602;39.724;2022-10-16T20:11:21;7.95;;;4.40;;
75651;SDS011;64248;43.602;39.724;2022-10-16T20:13:49;9.57;;;4.70;;
75651;SDS011;64248;43.602;39.724;2022-10-16T20:16:15;9.55;;;5.10;;
75651;SDS011;64248;43.602;39.724;2022-10-16T20:18:43;8.57;;;4.53;;
75651;SDS011;64248;43.602;39.724;2022-10-16T20:21:11;9.00;;;4.47;;
75651;SDS011;64248;43.602;39.724;2022-10-16T20:23:39;11.43;;;5.65;;
75651;SDS011;64248;43.602;39.724;2022-10-16T20:26:06;14.10;;;6.20;;
75651;SDS011;64248;43.602;39.724;2022-10-16T20:28:35;13.63;;;5.85;;
75651;SDS011;64248;43.602;39.724;2022-10-16T20:31:06;10.38;;;5.28;;
75651;SDS011;64248;43.602;39.724;2022-10-16T20:33:35;7.90;;;4.28;;
75651;SDS011;64248;43.602;39.724;2022-10-16T20:36:01;8.75;;;4.68;;
75651;SDS011;64248;43.602;39.724;2022-10-16T20:38:27;7.97;;;3.92;;
75651;SDS011;64248;43.602;39.724;2022-10-16T20:40:53;11.02;;;4.55;;
75651;SDS011;64248;43.602;39.724;2022-10-16T20:43:20;8.38;;;4.95;;
75651;SDS011;64248;43.602;39.724;2022-10-16T20:45:46;9.38;;;5.05;;
75651;SDS011;64248;43.602;39.724;2022-10-16T20:48:12;7.15;;;4.47;;
75651;SDS011;64248;43.602;39.724;2022-10-16T20:50:39;8.75;;;4.32;;
75651;SDS011;64248;43.602;39.724;2022-10-16T20:53:06;7.47;;;4.68;;
75651;SDS011;64248;43.602;39.724;2022-10-16T20:55:34;9.23;;;4.93;;
75651;SDS011;64248;43.602;39.724;2022-10-16T20:58:02;9.50;;;4.63;;
75651;SDS011;64248;43.602;39.724;2022-10-16T21:00:29;8.77;;;4.72;;
75651;SDS011;64248;43.602;39.724;2022-10-16T21:02:55;8.63;;;5.93;;
75651;SDS011;64248;43.602;39.724;2022-10-16T21:05:21;7.65;;;4.50;;
75651;SDS011;64248;43.602;39.724;2022-10-16T21:07:47;8.93;;;5.25;;
75651;SDS011;64248;43.602;39.724;2022-10-16T21:10:13;9.48;;;4.97;;
75651;SDS011;64248;43.602;39.724;2022-10-16T21:12:39;10.73;;;5.32;;
75651;SDS011;64248;43.602;39.724;2022-10-16T21:15:05;10.95;;;5.22;;
75651;SDS011;64248;43.602;39.724;2022-10-16T21:17:32;10.70;;;5.25;;
75651;SDS011;64248;43.602;39.724;2022-10-16T21:19:57;11.82;;;5.97;;
75651;SDS011;64248;43.602;39.724;2022-10-16T21:22:27;10.43;;;5.22;;
75651;SDS011;64248;43.602;39.724;2022-10-16T21:24:54;10.88;;;5.93;;
75651;SDS011;64248;43.602;39.724;2022-10-16T21:27:20;10.98;;;5.63;;
75651;SDS011;64248;43.602;39.724;2022-10-16T21:29:46;10.60;;;4.97;;
75651;SDS011;64248;43.602;39.724;2022-10-16T21:32:12;13.48;;;6.50;;
75651;SDS011;64248;43.602;39.724;2022-10-16T21:34:38;12.80;;;5.95;;
75651;SDS011;64248;43.602;39.724;2022-10-16T21:37:04;8.77;;;4.70;;
75651;SDS011;64248;43.602;39.724;2022-10-16T21:39:30;9.25;;;5.25;;
75651;SDS011;64248;43.602;39.724;2022-10-16T21:41:56;8.02;;;5.13;;
75651;SDS011;64248;43.602;39.724;2022-10-16T21:44:22;9.35;;;4.97;;
75651;SDS011;64248;43.602;39.724;2022-10-16T21:46:49;8.95;;;4.20;;
75651;SDS011;64248;43.602;39.724;2022-10-16T21:49:15;8.55;;;4.95;;
75651;SDS011;64248;43.602;39.724;2022-10-16T21:51:49;8.80;;;4.75;;
75651;SDS011;64248;43.602;39.724;2022-10-16T21:54:20;9.05;;;4.38;;
75651;SDS011;64248;43.602;39.724;2022-10-16T21:56:47;8.15;;;4.68;;
75651;SDS011;64248;43.602;39.724;2022-10-16T21:59:13;12.55;;;7.63;;
75651;SDS011;64248;43.602;39.724;2022-10-16T22:01:40;8.73;;;4.75;;
75651;SDS011;64248;43.602;39.724;2022-10-16T22:04:08;9.20;;;4.40;;
75651;SDS011;64248;43.602;39.724;2022-10-16T22:06:35;10.40;;;4.63;;
75651;SDS011;64248;43.602;39.724;2022-10-16T22:09:01;13.40;;;4.55;;
75651;SDS011;64248;43.602;39.724;2022-10-16T22:11:31;9.48;;;5.05;;
75651;SDS011;64248;43.602;39.724;2022-10-16T22:14:02;8.25;;;4.55;;
75651;SDS011;64248;43.602;39.724;2022-10-16T22:16:29;6.70;;;3.72;;
75651;SDS011;64248;43.602;39.724;2022-10-16T22:18:56;7.22;;;4.10;;
75651;SDS011;64248;43.602;39.724;2022-10-16T22:21:24;9.23;;;4.05;;
75651;SDS011;64248;43.602;39.724;2022-10-16T22:23:52;6.50;;;4.20;;
75651;SDS011;64248;43.602;39.724;2022-10-16T22:26:18;7.82;;;4.05;;
75651;SDS011;64248;43.602;39.724;2022-10-16T22:28:44;9.15;;;4.30;;
75651;SDS011;64248;43.602;39.724;2022-10-16T22:31:11;7.68;;;5.32;;
75651;SDS011;64248;43.602;39.724;2022-10-16T22:33:38;10.27;;;5.32;;
75651;SDS011;64248;43.602;39.724;2022-10-16T22:36:05;10.60;;;5.15;;
75651;SDS011;64248;43.602;39.724;2022-10-16T22:38:33;7.57;;;4.18;;
75651;SDS011;64248;43.602;39.724;2022-10-16T22:41:00;9.93;;;4.47;;
75651;SDS011;64248;43.602;39.724;2022-10-16T22:43:27;8.98;;;4.20;;
75651;SDS011;64248;43.602;39.724;2022-10-16T22:45:53;8.00;;;4.25;;
75651;SDS011;64248;43.602;39.724;2022-10-16T22:48:19;9.48;;;5.53;;
75651;SDS011;64248;43.602;39.724;2022-10-16T22:50:49;9.20;;;4.28;;
75651;SDS011;64248;43.602;39.724;2022-10-16T22:53:14;21.33;;;10.23;;
75651;SDS011;64248;43.602;39.724;2022-10-16T22:55:40;14.73;;;7.05;;
75651;SDS011;64248;43.602;39.724;2022-10-16T22:58:06;7.90;;;4.47;;
75651;SDS011;64248;43.602;39.724;2022-10-16T23:00:32;7.63;;;4.88;;
75651;SDS011;64248;43.602;39.724;2022-10-16T23:02:58;9.15;;;3.92;;
75651;SDS011;64248;43.602;39.724;2022-10-16T23:05:24;7.20;;;3.88;;
75651;SDS011;64248;43.602;39.724;2022-10-16T23:07:50;8.95;;;3.40;;
75651;SDS011;64248;43.602;39.724;2022-10-16T23:10:16;8.48;;;4.22;;
75651;SDS011;64248;43.602;39.724;2022-10-16T23:12:43;7.38;;;4.07;;
75651;SDS011;64248;43.602;39.724;2022-10-16T23:15:10;6.90;;;3.70;;
75651;SDS011;64248;43.602;39.724;2022-10-16T23:17:36;7.05;;;3.60;;
75651;SDS011;64248;43.602;39.724;2022-10-16T23:20:02;8.52;;;4.55;;
75651;SDS011;64248;43.602;39.724;2022-10-16T23:22:28;7.88;;;4.35;;
75651;SDS011;64248;43.602;39.724;2022-10-16T23:24:54;9.55;;;3.97;;
75651;SDS011;64248;43.602;39.724;2022-10-16T23:27:20;9.35;;;3.90;;
75651;SDS011;64248;43.602;39.724;2022-10-16T23:29:46;12.40;;;4.28;;
75651;SDS011;64248;43.602;39.724;2022-10-16T23:32:12;8.55;;;3.67;;
75651;SDS011;64248;43.602;39.724;2022-10-16T23:34:38;9.43;;;3.83;;
75651;SDS011;64248;43.602;39.724;2022-10-16T23:37:04;10.18;;;3.92;;
75651;SDS011;64248;43.602;39.724;2022-10-16T23:39:31;10.13;;;3.92;;
75651;SDS011;64248;43.602;39.724;2022-10-16T23:41:56;7.78;;;3.63;;
75651;SDS011;64248;43.602;39.724;2022-10-16T23:44:22;8.75;;;4.07;;
75651;SDS011;64248;43.602;39.724;2022-10-16T23:46:48;9.52;;;3.67;;
75651;SDS011;64248;43.602;39.724;2022-10-16T23:49:14;6.90;;;3.38;;
75651;SDS011;64248;43.602;39.724;2022-10-16T23:51:40;9.52;;;3.88;;
75651;SDS011;64248;43.602;39.724;2022-10-16T23:54:06;8.13;;;4.00;;
75651;SDS011;64248;43.602;39.724;2022-10-16T23:56:32;10.65;;;4.47;;
75651;SDS011;64248;43.602;39.724;2022-10-16T23:58:58;6.47;;;3.20;;
